createdAt,value
2023-09-27T00:00:02.638Z,1015.3
2023-09-27T00:15:03.145Z,1015.5
2023-09-27T00:30:02.547Z,1015.3
2023-09-27T00:45:03.032Z,1015.4
2023-09-27T01:00:02.389Z,1015.4
2023-09-27T01:15:03.019Z,1015.6
2023-09-27T01:30:02.282Z,1015.6
2023-09-27T01:45:02.727Z,1015.5
2023-09-27T02:00:03.206Z,1015.8
2023-09-27T02:15:02.628Z,1015.7
2023-09-27T02:30:03.068Z,1016.1
2023-09-27T02:45:02.493Z,1015.8
2023-09-27T03:00:03.042Z,1015.7
2023-09-27T03:15:02.363Z,1015.6
2023-09-27T03:30:03.020Z,1015.6
2023-09-27T03:45:02.207Z,1015.5
2023-09-27T04:00:02.668Z,1015.4
2023-09-27T04:15:03.109Z,1016.0
2023-09-27T04:30:02.530Z,1015.7
2023-09-27T04:45:03.055Z,1015.6
2023-09-27T05:00:02.408Z,1015.7
2023-09-27T05:15:03.072Z,1015.7
2023-09-27T05:30:02.348Z,1015.8
2023-09-27T05:45:02.706Z,1015.7
2023-09-27T06:00:03.177Z,1015.8
2023-09-27T06:15:02.600Z,1016.2
2023-09-27T06:30:03.088Z,1016.1
2023-09-27T06:45:02.457Z,1016.5
2023-09-27T07:00:03.154Z,1016.7
2023-09-27T07:15:02.314Z,1016.8
2023-09-27T07:30:02.775Z,1016.4
2023-09-27T07:45:03.206Z,1016.0
2023-09-27T08:00:02.648Z,1015.8
2023-09-27T08:15:03.098Z,1016.0
2023-09-27T08:30:02.571Z,1015.9
2023-09-27T08:45:03.098Z,1016.0
2023-09-27T09:00:02.459Z,1016.1
2023-09-27T09:15:03.039Z,1015.9
2023-09-27T09:30:02.277Z,1015.8
2023-09-27T09:45:02.756Z,1015.8
2023-09-27T10:00:03.173Z,1015.7
2023-09-27T10:15:02.619Z,1015.7
2023-09-27T10:30:03.129Z,1015.5
2023-09-27T10:45:02.497Z,1015.5
2023-09-27T11:00:03.294Z,1015.5
2023-09-27T11:30:02.849Z,1015.1
2023-09-27T11:45:02.278Z,1014.9
2023-09-27T12:00:02.731Z,1014.7
2023-09-27T12:15:03.172Z,1014.5
2023-09-27T12:30:02.589Z,1014.2
2023-09-27T12:45:03.280Z,1013.9
2023-09-27T13:00:02.530Z,1013.8
2023-09-27T13:15:03.062Z,1013.6
2023-09-27T13:30:02.455Z,1013.4
2023-09-27T13:45:02.859Z,1013.5
2023-09-27T14:00:02.191Z,1013.4
2023-09-27T14:15:02.648Z,1013.2
2023-09-27T14:30:03.180Z,1013.0
2023-09-27T14:45:02.914Z,1012.9
2023-09-27T15:00:02.178Z,1012.7
2023-09-27T15:15:02.400Z,1012.6
2023-09-27T15:30:02.871Z,1012.7
2023-09-27T15:45:02.298Z,1012.7
2023-09-27T16:00:02.725Z,1012.7
2023-09-27T16:15:03.184Z,1012.7
2023-09-27T16:30:02.672Z,1012.5
2023-09-27T16:45:03.188Z,1012.5
2023-09-27T17:00:02.517Z,1012.3
2023-09-27T17:15:03.089Z,1012.2
2023-09-27T17:30:02.377Z,1012.3
2023-09-27T17:45:02.820Z,1012.2
2023-09-27T18:00:02.263Z,1012.0
2023-09-27T18:15:13.354Z,1011.9
2023-09-27T18:30:02.580Z,1011.8
2023-09-27T18:45:03.564Z,1011.6
2023-09-27T19:00:03.189Z,1011.3
2023-09-27T19:15:02.435Z,1011.2
2023-09-27T19:30:02.890Z,1011.2
2023-09-27T19:45:02.379Z,1011.4
2023-09-27T20:00:02.819Z,1011.3
2023-09-27T20:15:03.218Z,1011.2
2023-09-27T20:30:02.651Z,1011.1
2023-09-27T20:45:03.227Z,1010.7
2023-09-27T21:00:02.519Z,1010.6
2023-09-27T21:15:02.963Z,1010.5
2023-09-27T21:30:02.396Z,1010.4
2023-09-27T21:45:02.843Z,1010.3
2023-09-27T22:00:02.271Z,1010.2
2023-09-27T22:15:02.716Z,1010.3
2023-09-27T22:30:03.257Z,1010.3
2023-09-27T22:45:02.587Z,1009.9
2023-09-27T23:00:03.243Z,1009.8
2023-09-27T23:15:02.465Z,1009.6
2023-09-27T23:30:02.909Z,1009.3
2023-09-27T23:45:02.359Z,1009.5
